Forside
METAR-TAF:

METAR-TAF

Lufthavne :

Coningsby, England

Breddekreds: 53-05N, længdekreds: 000-10W, højde: 7 m

Aktuelle vejr

Denne rapport blev lavet for 27 minutter siden, kl. 17:50 UTC
Vind 7 kt fra vest
Temperatur 4°C
Fugtighed 93%
Tryk 1011 hPa
Sigt 10 km eller mere
ingen skyer under 1500m og ingen cumulonimbus

METAR: EGXC 021750Z 27007KT CAVOK 04/03 Q1011 RMK BLU

Tid: 18:17 (18:17 UTC)

Vejrudsigter

Denne rapport blev lavet for 1 time og 21 minutter siden, kl. 16:56 UTC
Foreløbig gælder fra 02 på 18 UTC til 03 på 12 UTC
Vind 8 kt fra vest
Sigt 10 km eller mere
Nogle få skyer i en højde af 3000 ft
ændring
fra 03 på 03 UTC til 03 på 06 UTC
Brudte skyer i en højde af 800 ft
Sandsynlighed 40% :
Midlertidig
fra 03 på 04 UTC til 03 på 12 UTC
Brudte skyer i en højde af 400 ft

TAF: EGXC 021656Z 0218/0312 27008KT 9999 FEW030 BECMG 0303/0306 BKN008 PROB40 TEMPO 0304/0312 BKN004

Vejrobservationer og prognoser fra mere end 4000 lufthavne (METAR og TAF).

De gule og røde prikker repræsenterer de meteorologiske stationer.

Flyt musen over at se navnet på stationen.

Så klik over at se vejr observationer og prognoser.

At skifte det kort: Klik på de grønne knapper med et sort kors for at zoome ind; på den grønne knap med en bindestreg for at zoome ud; eller på de grønne pile for tilstødende kort.


METAR-TAF: